sensor_id;sensor_type;location;lat;lon;timestamp;P1;durP1;ratioP1;P2;durP2;ratioP2
9767;SDS011;4923;52.520;13.494;2023-02-28T00:00:12;1.88;;;1.27;;
9767;SDS011;4923;52.520;13.494;2023-02-28T00:03:00;1.40;;;1.10;;
9767;SDS011;4923;52.520;13.494;2023-02-28T00:05:48;2.67;;;1.45;;
9767;SDS011;4923;52.520;13.494;2023-02-28T00:08:35;3.17;;;1.30;;
9767;SDS011;4923;52.520;13.494;2023-02-28T00:11:22;1.08;;;0.98;;
9767;SDS011;4923;52.520;13.494;2023-02-28T00:14:09;1.80;;;1.35;;
9767;SDS011;4923;52.520;13.494;2023-02-28T00:16:56;1.45;;;1.35;;
9767;SDS011;4923;52.520;13.494;2023-02-28T00:19:43;1.13;;;1.13;;
9767;SDS011;4923;52.520;13.494;2023-02-28T00:22:31;1.02;;;1.00;;
9767;SDS011;4923;52.520;13.494;2023-02-28T00:25:19;1.02;;;0.93;;
9767;SDS011;4923;52.520;13.494;2023-02-28T00:28:07;0.90;;;0.90;;
9767;SDS011;4923;52.520;13.494;2023-02-28T00:30:53;1.30;;;1.30;;
9767;SDS011;4923;52.520;13.494;2023-02-28T00:33:40;1.05;;;0.80;;
9767;SDS011;4923;52.520;13.494;2023-02-28T00:36:27;1.38;;;1.27;;
9767;SDS011;4923;52.520;13.494;2023-02-28T00:39:15;1.45;;;1.20;;
9767;SDS011;4923;52.520;13.494;2023-02-28T00:42:03;2.80;;;1.00;;
9767;SDS011;4923;52.520;13.494;2023-02-28T00:44:50;3.80;;;1.10;;
9767;SDS011;4923;52.520;13.494;2023-02-28T00:47:37;1.25;;;1.25;;
9767;SDS011;4923;52.520;13.494;2023-02-28T00:50:24;1.40;;;1.27;;
9767;SDS011;4923;52.520;13.494;2023-02-28T00:53:11;2.80;;;1.23;;
9767;SDS011;4923;52.520;13.494;2023-02-28T00:55:59;1.42;;;0.90;;
9767;SDS011;4923;52.520;13.494;2023-02-28T00:58:46;1.08;;;1.00;;
9767;SDS011;4923;52.520;13.494;2023-02-28T01:01:33;4.00;;;1.50;;
9767;SDS011;4923;52.520;13.494;2023-02-28T01:04:20;4.45;;;0.93;;
9767;SDS011;4923;52.520;13.494;2023-02-28T01:07:07;1.35;;;1.25;;
9767;SDS011;4923;52.520;13.494;2023-02-28T01:09:54;7.70;;;0.98;;
9767;SDS011;4923;52.520;13.494;2023-02-28T01:12:42;1.63;;;1.23;;
9767;SDS011;4923;52.520;13.494;2023-02-28T01:15:29;4.72;;;1.40;;
9767;SDS011;4923;52.520;13.494;2023-02-28T01:18:17;2.15;;;1.20;;
9767;SDS011;4923;52.520;13.494;2023-02-28T01:21:04;1.75;;;1.08;;
9767;SDS011;4923;52.520;13.494;2023-02-28T01:23:51;1.63;;;1.55;;
9767;SDS011;4923;52.520;13.494;2023-02-28T01:26:38;1.20;;;1.10;;
9767;SDS011;4923;52.520;13.494;2023-02-28T01:29:26;3.03;;;1.50;;
9767;SDS011;4923;52.520;13.494;2023-02-28T01:32:13;2.05;;;1.85;;
9767;SDS011;4923;52.520;13.494;2023-02-28T01:35:00;6.55;;;1.70;;
9767;SDS011;4923;52.520;13.494;2023-02-28T01:37:47;1.50;;;1.40;;
9767;SDS011;4923;52.520;13.494;2023-02-28T01:40:34;3.35;;;1.65;;
9767;SDS011;4923;52.520;13.494;2023-02-28T01:43:22;1.40;;;1.40;;
9767;SDS011;4923;52.520;13.494;2023-02-28T01:46:11;1.48;;;1.30;;
9767;SDS011;4923;52.520;13.494;2023-02-28T01:49:01;2.05;;;1.95;;
9767;SDS011;4923;52.520;13.494;2023-02-28T01:51:51;13.52;;;1.73;;
9767;SDS011;4923;52.520;13.494;2023-02-28T01:54:41;2.45;;;1.73;;
9767;SDS011;4923;52.520;13.494;2023-02-28T01:57:28;2.42;;;1.70;;
9767;SDS011;4923;52.520;13.494;2023-02-28T02:00:23;1.90;;;1.85;;
9767;SDS011;4923;52.520;13.494;2023-02-28T02:03:14;1.92;;;1.83;;
9767;SDS011;4923;52.520;13.494;2023-02-28T02:06:04;2.05;;;1.90;;
9767;SDS011;4923;52.520;13.494;2023-02-28T02:08:51;3.35;;;2.25;;
9767;SDS011;4923;52.520;13.494;2023-02-28T02:11:39;3.25;;;2.13;;
9767;SDS011;4923;52.520;13.494;2023-02-28T02:14:31;2.15;;;1.80;;
9767;SDS011;4923;52.520;13.494;2023-02-28T02:17:28;3.20;;;1.90;;
9767;SDS011;4923;52.520;13.494;2023-02-28T02:20:36;2.88;;;2.13;;
9767;SDS011;4923;52.520;13.494;2023-02-28T02:23:51;2.55;;;2.20;;
9767;SDS011;4923;52.520;13.494;2023-02-28T02:27:15;4.10;;;2.63;;
9767;SDS011;4923;52.520;13.494;2023-02-28T02:36:39;2.50;;;2.30;;
9767;SDS011;4923;52.520;13.494;2023-02-28T02:39:36;2.88;;;2.25;;
9767;SDS011;4923;52.520;13.494;2023-02-28T02:42:30;4.28;;;1.83;;
9767;SDS011;4923;52.520;13.494;2023-02-28T02:45:23;2.67;;;2.28;;
9767;SDS011;4923;52.520;13.494;2023-02-28T02:48:15;1.92;;;1.83;;
9767;SDS011;4923;52.520;13.494;2023-02-28T02:51:06;5.93;;;2.00;;
9767;SDS011;4923;52.520;13.494;2023-02-28T02:53:59;2.95;;;2.10;;
9767;SDS011;4923;52.520;13.494;2023-02-28T02:56:51;2.80;;;2.00;;
9767;SDS011;4923;52.520;13.494;2023-02-28T02:59:39;5.90;;;3.50;;
9767;SDS011;4923;52.520;13.494;2023-02-28T03:02:27;6.25;;;4.72;;
9767;SDS011;4923;52.520;13.494;2023-02-28T03:05:20;4.50;;;2.92;;
9767;SDS011;4923;52.520;13.494;2023-02-28T03:08:10;3.53;;;2.85;;
9767;SDS011;4923;52.520;13.494;2023-02-28T03:10:58;2.50;;;2.30;;
9767;SDS011;4923;52.520;13.494;2023-02-28T03:14:00;5.90;;;2.55;;
9767;SDS011;4923;52.520;13.494;2023-02-28T03:17:03;5.85;;;3.30;;
9767;SDS011;4923;52.520;13.494;2023-02-28T03:20:12;3.88;;;2.53;;
9767;SDS011;4923;52.520;13.494;2023-02-28T03:23:13;5.75;;;2.63;;
9767;SDS011;4923;52.520;13.494;2023-02-28T03:26:07;4.85;;;2.60;;
9767;SDS011;4923;52.520;13.494;2023-02-28T03:29:02;5.57;;;2.50;;
9767;SDS011;4923;52.520;13.494;2023-02-28T03:31:57;27.58;;;13.15;;
9767;SDS011;4923;52.520;13.494;2023-02-28T03:34:50;18.92;;;8.93;;
9767;SDS011;4923;52.520;13.494;2023-02-28T03:37:42;10.85;;;6.35;;
9767;SDS011;4923;52.520;13.494;2023-02-28T03:40:32;12.70;;;7.93;;
9767;SDS011;4923;52.520;13.494;2023-02-28T03:43:23;8.25;;;4.25;;
9767;SDS011;4923;52.520;13.494;2023-02-28T03:46:14;4.68;;;2.85;;
9767;SDS011;4923;52.520;13.494;2023-02-28T03:49:08;3.00;;;2.80;;
9767;SDS011;4923;52.520;13.494;2023-02-28T03:52:00;8.98;;;2.67;;
9767;SDS011;4923;52.520;13.494;2023-02-28T03:54:50;3.80;;;3.60;;
9767;SDS011;4923;52.520;13.494;2023-02-28T03:57:43;3.30;;;3.10;;
9767;SDS011;4923;52.520;13.494;2023-02-28T04:00:39;3.25;;;3.05;;
9767;SDS011;4923;52.520;13.494;2023-02-28T04:03:31;3.17;;;2.88;;
9767;SDS011;4923;52.520;13.494;2023-02-28T04:06:18;6.47;;;3.92;;
9767;SDS011;4923;52.520;13.494;2023-02-28T04:09:07;4.20;;;3.17;;
9767;SDS011;4923;52.520;13.494;2023-02-28T04:11:56;5.53;;;2.70;;
9767;SDS011;4923;52.520;13.494;2023-02-28T04:14:43;3.38;;;2.90;;
9767;SDS011;4923;52.520;13.494;2023-02-28T04:17:31;4.40;;;3.40;;
9767;SDS011;4923;52.520;13.494;2023-02-28T04:20:18;7.15;;;2.85;;
9767;SDS011;4923;52.520;13.494;2023-02-28T04:23:05;18.08;;;3.67;;
9767;SDS011;4923;52.520;13.494;2023-02-28T04:25:54;8.65;;;3.95;;
9767;SDS011;4923;52.520;13.494;2023-02-28T04:28:41;8.80;;;4.75;;
9767;SDS011;4923;52.520;13.494;2023-02-28T04:31:28;7.07;;;3.45;;
9767;SDS011;4923;52.520;13.494;2023-02-28T04:34:16;6.45;;;4.40;;
9767;SDS011;4923;52.520;13.494;2023-02-28T04:37:04;9.38;;;3.45;;
9767;SDS011;4923;52.520;13.494;2023-02-28T04:39:52;5.82;;;3.50;;
9767;SDS011;4923;52.520;13.494;2023-02-28T04:42:38;4.80;;;3.55;;
9767;SDS011;4923;52.520;13.494;2023-02-28T04:45:25;4.55;;;3.80;;
9767;SDS011;4923;52.520;13.494;2023-02-28T04:48:15;6.30;;;4.00;;
9767;SDS011;4923;52.520;13.494;2023-02-28T04:51:04;8.35;;;4.90;;
9767;SDS011;4923;52.520;13.494;2023-02-28T04:53:52;11.00;;;5.00;;
9767;SDS011;4923;52.520;13.494;2023-02-28T04:56:39;6.20;;;5.05;;
9767;SDS011;4923;52.520;13.494;2023-02-28T04:59:26;15.48;;;6.68;;
9767;SDS011;4923;52.520;13.494;2023-02-28T05:02:13;14.18;;;7.32;;
9767;SDS011;4923;52.520;13.494;2023-02-28T05:05:00;6.75;;;3.85;;
9767;SDS011;4923;52.520;13.494;2023-02-28T05:07:48;4.93;;;4.40;;
9767;SDS011;4923;52.520;13.494;2023-02-28T05:10:35;6.15;;;4.68;;
9767;SDS011;4923;52.520;13.494;2023-02-28T05:13:22;9.85;;;5.03;;
9767;SDS011;4923;52.520;13.494;2023-02-28T05:16:09;13.32;;;4.85;;
9767;SDS011;4923;52.520;13.494;2023-02-28T05:18:55;3.67;;;3.35;;
9767;SDS011;4923;52.520;13.494;2023-02-28T05:21:48;5.43;;;4.20;;
9767;SDS011;4923;52.520;13.494;2023-02-28T05:24:38;10.55;;;4.78;;
9767;SDS011;4923;52.520;13.494;2023-02-28T05:27:25;6.65;;;4.55;;
9767;SDS011;4923;52.520;13.494;2023-02-28T05:30:13;8.00;;;4.60;;
9767;SDS011;4923;52.520;13.494;2023-02-28T05:33:00;6.07;;;3.85;;
9767;SDS011;4923;52.520;13.494;2023-02-28T05:35:47;6.35;;;4.38;;
9767;SDS011;4923;52.520;13.494;2023-02-28T05:38:34;10.15;;;4.18;;
9767;SDS011;4923;52.520;13.494;2023-02-28T05:41:22;14.32;;;8.05;;
9767;SDS011;4923;52.520;13.494;2023-02-28T05:44:09;17.23;;;9.35;;
9767;SDS011;4923;52.520;13.494;2023-02-28T05:46:56;8.20;;;4.68;;
9767;SDS011;4923;52.520;13.494;2023-02-28T05:49:43;8.88;;;5.05;;
9767;SDS011;4923;52.520;13.494;2023-02-28T05:52:30;13.90;;;6.70;;
9767;SDS011;4923;52.520;13.494;2023-02-28T05:55:17;17.67;;;8.13;;
9767;SDS011;4923;52.520;13.494;2023-02-28T05:58:05;15.38;;;8.45;;
9767;SDS011;4923;52.520;13.494;2023-02-28T06:00:52;12.00;;;6.78;;
9767;SDS011;4923;52.520;13.494;2023-02-28T06:03:39;6.22;;;4.97;;
9767;SDS011;4923;52.520;13.494;2023-02-28T06:06:26;17.35;;;5.97;;
9767;SDS011;4923;52.520;13.494;2023-02-28T06:09:13;18.80;;;10.43;;
9767;SDS011;4923;52.520;13.494;2023-02-28T06:12:00;16.63;;;8.45;;
9767;SDS011;4923;52.520;13.494;2023-02-28T06:14:52;16.00;;;6.85;;
9767;SDS011;4923;52.520;13.494;2023-02-28T06:17:38;15.40;;;8.63;;
9767;SDS011;4923;52.520;13.494;2023-02-28T06:20:26;14.98;;;9.70;;
9767;SDS011;4923;52.520;13.494;2023-02-28T06:23:14;18.17;;;8.45;;
9767;SDS011;4923;52.520;13.494;2023-02-28T06:26:02;12.30;;;7.13;;
9767;SDS011;4923;52.520;13.494;2023-02-28T06:28:49;6.72;;;5.88;;
9767;SDS011;4923;52.520;13.494;2023-02-28T06:31:38;15.85;;;5.45;;
9767;SDS011;4923;52.520;13.494;2023-02-28T06:34:25;8.18;;;5.65;;
9767;SDS011;4923;52.520;13.494;2023-02-28T06:37:12;13.60;;;7.28;;
9767;SDS011;4923;52.520;13.494;2023-02-28T06:39:59;13.48;;;8.98;;
9767;SDS011;4923;52.520;13.494;2023-02-28T06:42:46;10.35;;;7.53;;
9767;SDS011;4923;52.520;13.494;2023-02-28T06:45:32;14.23;;;7.50;;
9767;SDS011;4923;52.520;13.494;2023-02-28T06:48:21;12.38;;;7.10;;
9767;SDS011;4923;52.520;13.494;2023-02-28T06:51:09;9.98;;;5.88;;
9767;SDS011;4923;52.520;13.494;2023-02-28T06:53:58;16.77;;;6.65;;
9767;SDS011;4923;52.520;13.494;2023-02-28T06:56:45;7.93;;;6.65;;
9767;SDS011;4923;52.520;13.494;2023-02-28T06:59:32;7.70;;;6.75;;
9767;SDS011;4923;52.520;13.494;2023-02-28T07:02:20;11.80;;;7.35;;
9767;SDS011;4923;52.520;13.494;2023-02-28T07:05:08;19.70;;;7.75;;
9767;SDS011;4923;52.520;13.494;2023-02-28T07:07:55;32.10;;;14.68;;
9767;SDS011;4923;52.520;13.494;2023-02-28T07:10:42;15.15;;;6.35;;
9767;SDS011;4923;52.520;13.494;2023-02-28T07:13:29;13.57;;;6.82;;
9767;SDS011;4923;52.520;13.494;2023-02-28T07:16:16;9.20;;;6.60;;
9767;SDS011;4923;52.520;13.494;2023-02-28T07:19:03;12.45;;;6.80;;
9767;SDS011;4923;52.520;13.494;2023-02-28T07:21:51;8.98;;;5.50;;
9767;SDS011;4923;52.520;13.494;2023-02-28T07:24:38;8.02;;;5.25;;
9767;SDS011;4923;52.520;13.494;2023-02-28T07:27:25;10.25;;;4.65;;
9767;SDS011;4923;52.520;13.494;2023-02-28T07:30:12;6.13;;;4.03;;
9767;SDS011;4923;52.520;13.494;2023-02-28T07:32:59;4.57;;;4.07;;
9767;SDS011;4923;52.520;13.494;2023-02-28T07:35:46;7.70;;;4.03;;
9767;SDS011;4923;52.520;13.494;2023-02-28T07:38:34;3.17;;;2.80;;
9767;SDS011;4923;52.520;13.494;2023-02-28T07:41:22;7.50;;;2.83;;
9767;SDS011;4923;52.520;13.494;2023-02-28T07:44:12;6.65;;;2.60;;
9767;SDS011;4923;52.520;13.494;2023-02-28T07:46:59;2.90;;;2.65;;
9767;SDS011;4923;52.520;13.494;2023-02-28T07:49:46;4.47;;;2.13;;
9767;SDS011;4923;52.520;13.494;2023-02-28T07:52:33;2.88;;;1.88;;
9767;SDS011;4923;52.520;13.494;2023-02-28T07:55:21;4.72;;;3.17;;
9767;SDS011;4923;52.520;13.494;2023-02-28T07:58:08;3.92;;;2.60;;
9767;SDS011;4923;52.520;13.494;2023-02-28T08:00:55;7.07;;;2.42;;
9767;SDS011;4923;52.520;13.494;2023-02-28T08:03:42;6.15;;;2.38;;
9767;SDS011;4923;52.520;13.494;2023-02-28T08:06:29;2.50;;;1.38;;
9767;SDS011;4923;52.520;13.494;2023-02-28T08:09:16;1.75;;;1.65;;
9767;SDS011;4923;52.520;13.494;2023-02-28T08:12:05;12.00;;;2.10;;
9767;SDS011;4923;52.520;13.494;2023-02-28T08:14:52;6.82;;;1.95;;
9767;SDS011;4923;52.520;13.494;2023-02-28T08:17:39;4.45;;;2.70;;
9767;SDS011;4923;52.520;13.494;2023-02-28T08:20:26;7.97;;;1.73;;
9767;SDS011;4923;52.520;13.494;2023-02-28T08:23:13;4.20;;;2.17;;
9767;SDS011;4923;52.520;13.494;2023-02-28T08:26:00;3.95;;;1.40;;
9767;SDS011;4923;52.520;13.494;2023-02-28T08:28:49;2.63;;;1.40;;
9767;SDS011;4923;52.520;13.494;2023-02-28T08:31:37;6.05;;;1.20;;
9767;SDS011;4923;52.520;13.494;2023-02-28T08:34:24;3.65;;;1.10;;
9767;SDS011;4923;52.520;13.494;2023-02-28T08:37:11;3.72;;;1.13;;
9767;SDS011;4923;52.520;13.494;2023-02-28T08:39:57;4.00;;;1.30;;
9767;SDS011;4923;52.520;13.494;2023-02-28T08:42:44;2.75;;;1.00;;
9767;SDS011;4923;52.520;13.494;2023-02-28T08:45:33;1.77;;;1.00;;
9767;SDS011;4923;52.520;13.494;2023-02-28T08:48:20;1.55;;;1.08;;
9767;SDS011;4923;52.520;13.494;2023-02-28T08:51:07;1.77;;;1.00;;
9767;SDS011;4923;52.520;13.494;2023-02-28T08:53:57;0.60;;;0.60;;
9767;SDS011;4923;52.520;13.494;2023-02-28T08:56:46;0.70;;;0.70;;
9767;SDS011;4923;52.520;13.494;2023-02-28T08:59:33;1.15;;;0.70;;
9767;SDS011;4923;52.520;13.494;2023-02-28T09:02:21;2.67;;;1.15;;
9767;SDS011;4923;52.520;13.494;2023-02-28T09:05:08;0.70;;;0.70;;
9767;SDS011;4923;52.520;13.494;2023-02-28T09:07:56;0.70;;;0.70;;
9767;SDS011;4923;52.520;13.494;2023-02-28T09:10:42;4.53;;;0.80;;
9767;SDS011;4923;52.520;13.494;2023-02-28T09:13:30;1.42;;;0.80;;
9767;SDS011;4923;52.520;13.494;2023-02-28T09:16:18;0.70;;;0.70;;
9767;SDS011;4923;52.520;13.494;2023-02-28T09:19:07;0.77;;;0.70;;
9767;SDS011;4923;52.520;13.494;2023-02-28T09:21:57;1.40;;;0.73;;
9767;SDS011;4923;52.520;13.494;2023-02-28T09:24:43;1.45;;;0.80;;
9767;SDS011;4923;52.520;13.494;2023-02-28T09:27:30;0.80;;;0.80;;
9767;SDS011;4923;52.520;13.494;2023-02-28T09:30:17;1.95;;;0.60;;
9767;SDS011;4923;52.520;13.494;2023-02-28T09:33:04;0.85;;;0.85;;
9767;SDS011;4923;52.520;13.494;2023-02-28T09:35:57;1.10;;;0.60;;
9767;SDS011;4923;52.520;13.494;2023-02-28T09:38:45;0.50;;;0.50;;
9767;SDS011;4923;52.520;13.494;2023-02-28T09:41:35;0.70;;;0.70;;
9767;SDS011;4923;52.520;13.494;2023-02-28T09:44:33;0.60;;;0.60;;
9767;SDS011;4923;52.520;13.494;2023-02-28T09:47:25;1.00;;;0.90;;
9767;SDS011;4923;52.520;13.494;2023-02-28T09:50:20;0.60;;;0.60;;
9767;SDS011;4923;52.520;13.494;2023-02-28T09:53:21;11.02;;;0.73;;
9767;SDS011;4923;52.520;13.494;2023-02-28T09:56:14;0.80;;;0.80;;
9767;SDS011;4923;52.520;13.494;2023-02-28T09:59:14;1.92;;;0.60;;
9767;SDS011;4923;52.520;13.494;2023-02-28T10:02:17;0.65;;;0.65;;
9767;SDS011;4923;52.520;13.494;2023-02-28T10:05:20;1.15;;;0.65;;
9767;SDS011;4923;52.520;13.494;2023-02-28T10:08:12;0.75;;;0.75;;
9767;SDS011;4923;52.520;13.494;2023-02-28T10:11:06;0.80;;;0.70;;
9767;SDS011;4923;52.520;13.494;2023-02-28T10:13:55;0.52;;;0.52;;
9767;SDS011;4923;52.520;13.494;2023-02-28T10:16:47;0.57;;;0.57;;
9767;SDS011;4923;52.520;13.494;2023-02-28T10:19:40;3.00;;;0.70;;
9767;SDS011;4923;52.520;13.494;2023-02-28T10:22:34;2.90;;;0.70;;
9767;SDS011;4923;52.520;13.494;2023-02-28T10:25:27;1.67;;;1.05;;
9767;SDS011;4923;52.520;13.494;2023-02-28T10:28:16;0.73;;;0.73;;
9767;SDS011;4923;52.520;13.494;2023-02-28T10:31:04;0.60;;;0.60;;
9767;SDS011;4923;52.520;13.494;2023-02-28T10:33:51;2.45;;;0.88;;
9767;SDS011;4923;52.520;13.494;2023-02-28T10:36:38;3.15;;;0.90;;
9767;SDS011;4923;52.520;13.494;2023-02-28T10:39:35;0.80;;;0.60;;
9767;SDS011;4923;52.520;13.494;2023-02-28T10:42:27;0.73;;;0.70;;
9767;SDS011;4923;52.520;13.494;2023-02-28T10:45:17;2.58;;;0.75;;
9767;SDS011;4923;52.520;13.494;2023-02-28T10:48:05;0.80;;;0.80;;
9767;SDS011;4923;52.520;13.494;2023-02-28T10:51:10;1.45;;;0.73;;
9767;SDS011;4923;52.520;13.494;2023-02-28T10:53:58;0.70;;;0.60;;
9767;SDS011;4923;52.520;13.494;2023-02-28T10:56:45;0.70;;;0.70;;
9767;SDS011;4923;52.520;13.494;2023-02-28T10:59:32;2.22;;;0.85;;
9767;SDS011;4923;52.520;13.494;2023-02-28T11:02:30;0.82;;;0.82;;
9767;SDS011;4923;52.520;13.494;2023-02-28T11:05:22;0.95;;;0.95;;
9767;SDS011;4923;52.520;13.494;2023-02-28T11:08:12;1.70;;;1.13;;
9767;SDS011;4923;52.520;13.494;2023-02-28T11:11:04;4.82;;;0.85;;
9767;SDS011;4923;52.520;13.494;2023-02-28T11:13:52;1.02;;;1.00;;
9767;SDS011;4923;52.520;13.494;2023-02-28T11:16:41;1.67;;;1.00;;
9767;SDS011;4923;52.520;13.494;2023-02-28T11:19:30;1.08;;;0.93;;
9767;SDS011;4923;52.520;13.494;2023-02-28T11:22:24;9.90;;;0.85;;
9767;SDS011;4923;52.520;13.494;2023-02-28T11:25:16;0.80;;;0.80;;
9767;SDS011;4923;52.520;13.494;2023-02-28T11:28:22;1.10;;;1.08;;
9767;SDS011;4923;52.520;13.494;2023-02-28T11:31:15;0.93;;;0.90;;
9767;SDS011;4923;52.520;13.494;2023-02-28T11:34:21;1.15;;;1.15;;
9767;SDS011;4923;52.520;13.494;2023-02-28T11:37:13;1.35;;;1.33;;
9767;SDS011;4923;52.520;13.494;2023-02-28T11:40:01;1.35;;;0.80;;
9767;SDS011;4923;52.520;13.494;2023-02-28T11:42:54;1.08;;;1.00;;
9767;SDS011;4923;52.520;13.494;2023-02-28T11:45:55;2.35;;;1.00;;
9767;SDS011;4923;52.520;13.494;2023-02-28T11:48:54;0.90;;;0.90;;
9767;SDS011;4923;52.520;13.494;2023-02-28T11:51:53;5.57;;;0.90;;
9767;SDS011;4923;52.520;13.494;2023-02-28T11:54:57;2.05;;;0.88;;
9767;SDS011;4923;52.520;13.494;2023-02-28T11:57:56;0.80;;;0.80;;
9767;SDS011;4923;52.520;13.494;2023-02-28T12:01:09;1.40;;;1.30;;
9767;SDS011;4923;52.520;13.494;2023-02-28T12:04:17;0.90;;;0.88;;
9767;SDS011;4923;52.520;13.494;2023-02-28T12:07:15;1.42;;;0.90;;
9767;SDS011;4923;52.520;13.494;2023-02-28T12:10:11;1.85;;;0.95;;
9767;SDS011;4923;52.520;13.494;2023-02-28T12:13:10;1.10;;;1.00;;
9767;SDS011;4923;52.520;13.494;2023-02-28T12:16:12;1.75;;;0.88;;
9767;SDS011;4923;52.520;13.494;2023-02-28T12:19:17;1.20;;;0.90;;
9767;SDS011;4923;52.520;13.494;2023-02-28T12:22:12;0.63;;;0.63;;
9767;SDS011;4923;52.520;13.494;2023-02-28T12:28:30;1.17;;;0.90;;
9767;SDS011;4923;52.520;13.494;2023-02-28T12:31:19;0.70;;;0.70;;
9767;SDS011;4923;52.520;13.494;2023-02-28T12:34:11;1.30;;;0.90;;
9767;SDS011;4923;52.520;13.494;2023-02-28T12:37:03;1.75;;;1.00;;
9767;SDS011;4923;52.520;13.494;2023-02-28T12:39:54;1.05;;;0.90;;
9767;SDS011;4923;52.520;13.494;2023-02-28T12:42:52;4.88;;;0.90;;
9767;SDS011;4923;52.520;13.494;2023-02-28T12:45:44;3.72;;;1.20;;
9767;SDS011;4923;52.520;13.494;2023-02-28T12:48:37;1.10;;;0.90;;
9767;SDS011;4923;52.520;13.494;2023-02-28T12:51:26;0.90;;;0.90;;
9767;SDS011;4923;52.520;13.494;2023-02-28T12:54:16;2.40;;;0.80;;
9767;SDS011;4923;52.520;13.494;2023-02-28T12:57:11;1.08;;;0.80;;
9767;SDS011;4923;52.520;13.494;2023-02-28T13:00:03;1.23;;;1.13;;
9767;SDS011;4923;52.520;13.494;2023-02-28T13:03:02;1.60;;;0.80;;
9767;SDS011;4923;52.520;13.494;2023-02-28T13:06:28;0.82;;;0.82;;
9767;SDS011;4923;52.520;13.494;2023-02-28T13:09:38;0.98;;;0.90;;
9767;SDS011;4923;52.520;13.494;2023-02-28T13:12:25;1.73;;;1.02;;
9767;SDS011;4923;52.520;13.494;2023-02-28T13:15:17;0.68;;;0.68;;
9767;SDS011;4923;52.520;13.494;2023-02-28T13:18:20;0.77;;;0.77;;
9767;SDS011;4923;52.520;13.494;2023-02-28T13:21:22;4.35;;;1.00;;
9767;SDS011;4923;52.520;13.494;2023-02-28T13:24:10;5.50;;;0.80;;
9767;SDS011;4923;52.520;13.494;2023-02-28T13:34:04;0.88;;;0.80;;
9767;SDS011;4923;52.520;13.494;2023-02-28T13:40:28;1.20;;;1.08;;
9767;SDS011;4923;52.520;13.494;2023-02-28T13:43:23;0.88;;;0.88;;
9767;SDS011;4923;52.520;13.494;2023-02-28T13:50:14;1.75;;;0.93;;
9767;SDS011;4923;52.520;13.494;2023-02-28T13:56:32;0.90;;;0.90;;
9767;SDS011;4923;52.520;13.494;2023-02-28T13:59:30;0.90;;;0.90;;
9767;SDS011;4923;52.520;13.494;2023-02-28T14:05:39;1.00;;;1.00;;
9767;SDS011;4923;52.520;13.494;2023-02-28T14:08:26;1.13;;;1.08;;
9767;SDS011;4923;52.520;13.494;2023-02-28T14:11:23;0.90;;;0.90;;
9767;SDS011;4923;52.520;13.494;2023-02-28T14:17:42;1.05;;;1.00;;
9767;SDS011;4923;52.520;13.494;2023-02-28T14:20:29;1.88;;;1.00;;
9767;SDS011;4923;52.520;13.494;2023-02-28T14:23:21;1.20;;;1.10;;
9767;SDS011;4923;52.520;13.494;2023-02-28T14:26:25;2.17;;;0.95;;
9767;SDS011;4923;52.520;13.494;2023-02-28T14:29:37;1.00;;;1.00;;
9767;SDS011;4923;52.520;13.494;2023-02-28T14:32:54;1.40;;;1.13;;
9767;SDS011;4923;52.520;13.494;2023-02-28T14:35:50;1.40;;;1.30;;
9767;SDS011;4923;52.520;13.494;2023-02-28T14:38:47;3.70;;;1.35;;
9767;SDS011;4923;52.520;13.494;2023-02-28T14:41:37;1.30;;;1.30;;
9767;SDS011;4923;52.520;13.494;2023-02-28T14:44:26;1.35;;;1.35;;
9767;SDS011;4923;52.520;13.494;2023-02-28T14:47:15;1.48;;;1.38;;
9767;SDS011;4923;52.520;13.494;2023-02-28T14:50:03;1.13;;;1.13;;
9767;SDS011;4923;52.520;13.494;2023-02-28T14:52:52;1.90;;;1.80;;
9767;SDS011;4923;52.520;13.494;2023-02-28T14:55:43;1.80;;;1.25;;
9767;SDS011;4923;52.520;13.494;2023-02-28T14:58:32;0.98;;;0.98;;
9767;SDS011;4923;52.520;13.494;2023-02-28T15:01:20;1.23;;;1.10;;
9767;SDS011;4923;52.520;13.494;2023-02-28T15:04:16;5.57;;;0.98;;
9767;SDS011;4923;52.520;13.494;2023-02-28T15:07:09;1.27;;;0.90;;
9767;SDS011;4923;52.520;13.494;2023-02-28T15:10:09;1.02;;;1.02;;
9767;SDS011;4923;52.520;13.494;2023-02-28T15:13:00;1.30;;;1.05;;
9767;SDS011;4923;52.520;13.494;2023-02-28T15:15:50;1.92;;;1.35;;
9767;SDS011;4923;52.520;13.494;2023-02-28T15:18:43;2.25;;;1.40;;
9767;SDS011;4923;52.520;13.494;2023-02-28T15:21:35;1.00;;;1.00;;
9767;SDS011;4923;52.520;13.494;2023-02-28T15:24:27;1.98;;;1.02;;
9767;SDS011;4923;52.520;13.494;2023-02-28T15:27:21;2.47;;;1.77;;
9767;SDS011;4923;52.520;13.494;2023-02-28T15:30:14;1.20;;;1.20;;
9767;SDS011;4923;52.520;13.494;2023-02-28T15:33:05;5.63;;;1.30;;
9767;SDS011;4923;52.520;13.494;2023-02-28T15:36:05;1.10;;;1.00;;
9767;SDS011;4923;52.520;13.494;2023-02-28T15:38:54;0.95;;;0.95;;
9767;SDS011;4923;52.520;13.494;2023-02-28T15:41:41;1.75;;;1.30;;
9767;SDS011;4923;52.520;13.494;2023-02-28T15:44:30;1.25;;;1.00;;
9767;SDS011;4923;52.520;13.494;2023-02-28T15:47:21;2.70;;;1.20;;
9767;SDS011;4923;52.520;13.494;2023-02-28T15:50:10;6.05;;;1.20;;
9767;SDS011;4923;52.520;13.494;2023-02-28T15:53:00;2.05;;;1.10;;
9767;SDS011;4923;52.520;13.494;2023-02-28T15:55:58;0.90;;;0.90;;
9767;SDS011;4923;52.520;13.494;2023-02-28T15:58:47;1.63;;;1.10;;
9767;SDS011;4923;52.520;13.494;2023-02-28T16:01:35;2.22;;;1.25;;
9767;SDS011;4923;52.520;13.494;2023-02-28T16:04:22;0.98;;;0.98;;
9767;SDS011;4923;52.520;13.494;2023-02-28T16:07:14;0.82;;;0.82;;
9767;SDS011;4923;52.520;13.494;2023-02-28T16:10:01;0.90;;;0.90;;
9767;SDS011;4923;52.520;13.494;2023-02-28T16:12:52;1.00;;;1.00;;
9767;SDS011;4923;52.520;13.494;2023-02-28T16:15:41;0.95;;;0.95;;
9767;SDS011;4923;52.520;13.494;2023-02-28T16:18:29;0.85;;;0.75;;
9767;SDS011;4923;52.520;13.494;2023-02-28T16:21:16;1.20;;;1.20;;
9767;SDS011;4923;52.520;13.494;2023-02-28T16:24:03;2.08;;;1.52;;
9767;SDS011;4923;52.520;13.494;2023-02-28T16:26:50;1.40;;;1.00;;
9767;SDS011;4923;52.520;13.494;2023-02-28T16:29:41;1.15;;;0.90;;
9767;SDS011;4923;52.520;13.494;2023-02-28T16:32:28;1.45;;;1.08;;
9767;SDS011;4923;52.520;13.494;2023-02-28T16:35:15;1.33;;;1.10;;
9767;SDS011;4923;52.520;13.494;2023-02-28T16:38:03;2.45;;;1.73;;
9767;SDS011;4923;52.520;13.494;2023-02-28T16:40:50;3.28;;;1.35;;
9767;SDS011;4923;52.520;13.494;2023-02-28T16:43:38;1.40;;;1.40;;
9767;SDS011;4923;52.520;13.494;2023-02-28T16:46:26;4.53;;;1.23;;
9767;SDS011;4923;52.520;13.494;2023-02-28T16:49:17;1.73;;;1.20;;
9767;SDS011;4923;52.520;13.494;2023-02-28T16:52:04;2.00;;;1.90;;
9767;SDS011;4923;52.520;13.494;2023-02-28T16:54:51;2.65;;;1.42;;
9767;SDS011;4923;52.520;13.494;2023-02-28T16:57:39;2.67;;;1.42;;
9767;SDS011;4923;52.520;13.494;2023-02-28T17:00:27;1.13;;;1.02;;
9767;SDS011;4923;52.520;13.494;2023-02-28T17:03:20;15.73;;;2.25;;
9767;SDS011;4923;52.520;13.494;2023-02-28T17:06:15;7.57;;;2.00;;
9767;SDS011;4923;52.520;13.494;2023-02-28T17:09:05;1.55;;;1.45;;
9767;SDS011;4923;52.520;13.494;2023-02-28T17:11:54;1.20;;;1.20;;
9767;SDS011;4923;52.520;13.494;2023-02-28T17:14:41;1.98;;;1.48;;
9767;SDS011;4923;52.520;13.494;2023-02-28T17:17:28;2.30;;;1.67;;
9767;SDS011;4923;52.520;13.494;2023-02-28T17:20:18;2.40;;;2.22;;
9767;SDS011;4923;52.520;13.494;2023-02-28T17:23:07;2.20;;;2.00;;
9767;SDS011;4923;52.520;13.494;2023-02-28T17:25:54;7.30;;;2.17;;
9767;SDS011;4923;52.520;13.494;2023-02-28T17:28:41;3.25;;;3.05;;
9767;SDS011;4923;52.520;13.494;2023-02-28T17:31:28;5.28;;;2.70;;
9767;SDS011;4923;52.520;13.494;2023-02-28T17:34:17;1.80;;;1.70;;
9767;SDS011;4923;52.520;13.494;2023-02-28T17:37:08;5.13;;;3.08;;
9767;SDS011;4923;52.520;13.494;2023-02-28T17:39:55;2.40;;;2.20;;
9767;SDS011;4923;52.520;13.494;2023-02-28T17:42:42;6.38;;;2.40;;
9767;SDS011;4923;52.520;13.494;2023-02-28T17:45:29;3.17;;;1.92;;
9767;SDS011;4923;52.520;13.494;2023-02-28T17:48:16;3.25;;;3.03;;
9767;SDS011;4923;52.520;13.494;2023-02-28T17:51:03;4.20;;;2.33;;
9767;SDS011;4923;52.520;13.494;2023-02-28T17:53:51;5.35;;;2.55;;
9767;SDS011;4923;52.520;13.494;2023-02-28T17:56:39;3.35;;;2.67;;